sensor_id;sensor_type;location;lat;lon;timestamp;P1;durP1;ratioP1;P2;durP2;ratioP2
33190;SDS011;19554;42.652;23.364;2023-01-19T00:00:03;41.38;;;5.60;;
33190;SDS011;19554;42.652;23.364;2023-01-19T00:02:30;38.40;;;5.32;;
33190;SDS011;19554;42.652;23.364;2023-01-19T00:04:56;44.60;;;6.78;;
33190;SDS011;19554;42.652;23.364;2023-01-19T00:07:23;42.70;;;6.53;;
33190;SDS011;19554;42.652;23.364;2023-01-19T00:09:49;35.53;;;4.57;;
33190;SDS011;19554;42.652;23.364;2023-01-19T00:12:14;37.03;;;5.18;;
33190;SDS011;19554;42.652;23.364;2023-01-19T00:14:39;36.63;;;5.47;;
33190;SDS011;19554;42.652;23.364;2023-01-19T00:17:05;33.55;;;5.47;;
33190;SDS011;19554;42.652;23.364;2023-01-19T00:19:30;33.92;;;4.95;;
33190;SDS011;19554;42.652;23.364;2023-01-19T00:21:55;30.38;;;5.70;;
33190;SDS011;19554;42.652;23.364;2023-01-19T00:24:21;36.20;;;5.10;;
33190;SDS011;19554;42.652;23.364;2023-01-19T00:26:46;37.90;;;4.70;;
33190;SDS011;19554;42.652;23.364;2023-01-19T00:29:12;30.52;;;5.13;;
33190;SDS011;19554;42.652;23.364;2023-01-19T00:31:38;29.83;;;5.22;;
33190;SDS011;19554;42.652;23.364;2023-01-19T00:34:04;38.22;;;6.75;;
33190;SDS011;19554;42.652;23.364;2023-01-19T00:36:30;38.70;;;5.90;;
33190;SDS011;19554;42.652;23.364;2023-01-19T00:38:57;34.38;;;5.18;;
33190;SDS011;19554;42.652;23.364;2023-01-19T00:41:23;29.20;;;5.38;;
33190;SDS011;19554;42.652;23.364;2023-01-19T00:44:09;25.90;;;5.20;;
33190;SDS011;19554;42.652;23.364;2023-01-19T00:46:35;42.78;;;6.90;;
33190;SDS011;19554;42.652;23.364;2023-01-19T00:49:01;32.67;;;5.57;;
33190;SDS011;19554;42.652;23.364;2023-01-19T00:51:26;35.53;;;6.07;;
33190;SDS011;19554;42.652;23.364;2023-01-19T00:53:52;39.47;;;4.60;;
33190;SDS011;19554;42.652;23.364;2023-01-19T00:56:17;40.70;;;4.45;;
33190;SDS011;19554;42.652;23.364;2023-01-19T00:58:43;47.92;;;5.30;;
33190;SDS011;19554;42.652;23.364;2023-01-19T01:01:09;32.83;;;6.20;;
33190;SDS011;19554;42.652;23.364;2023-01-19T01:03:34;43.67;;;5.47;;
33190;SDS011;19554;42.652;23.364;2023-01-19T01:06:00;53.33;;;5.53;;
33190;SDS011;19554;42.652;23.364;2023-01-19T01:08:27;32.85;;;5.25;;
33190;SDS011;19554;42.652;23.364;2023-01-19T01:10:53;38.60;;;5.15;;
33190;SDS011;19554;42.652;23.364;2023-01-19T01:13:19;29.15;;;4.95;;
33190;SDS011;19554;42.652;23.364;2023-01-19T01:15:47;31.60;;;4.85;;
33190;SDS011;19554;42.652;23.364;2023-01-19T01:18:15;37.83;;;5.72;;
33190;SDS011;19554;42.652;23.364;2023-01-19T01:20:40;43.17;;;5.55;;
33190;SDS011;19554;42.652;23.364;2023-01-19T01:23:05;26.48;;;4.35;;
33190;SDS011;19554;42.652;23.364;2023-01-19T01:25:31;36.92;;;4.90;;
33190;SDS011;19554;42.652;23.364;2023-01-19T01:28:01;27.00;;;4.43;;
33190;SDS011;19554;42.652;23.364;2023-01-19T01:30:29;48.40;;;6.05;;
33190;SDS011;19554;42.652;23.364;2023-01-19T01:32:54;30.05;;;4.53;;
33190;SDS011;19554;42.652;23.364;2023-01-19T01:35:20;31.98;;;4.95;;
33190;SDS011;19554;42.652;23.364;2023-01-19T01:37:45;49.78;;;5.55;;
33190;SDS011;19554;42.652;23.364;2023-01-19T01:40:11;39.75;;;4.28;;
33190;SDS011;19554;42.652;23.364;2023-01-19T01:42:38;27.48;;;5.30;;
33190;SDS011;19554;42.652;23.364;2023-01-19T01:45:06;29.52;;;4.63;;
33190;SDS011;19554;42.652;23.364;2023-01-19T01:50:31;30.42;;;4.60;;
33190;SDS011;19554;42.652;23.364;2023-01-19T01:53:09;37.67;;;5.03;;
33190;SDS011;19554;42.652;23.364;2023-01-19T01:55:42;45.85;;;4.88;;
33190;SDS011;19554;42.652;23.364;2023-01-19T01:58:11;30.50;;;4.75;;
33190;SDS011;19554;42.652;23.364;2023-01-19T02:00:38;30.02;;;4.32;;
33190;SDS011;19554;42.652;23.364;2023-01-19T02:03:22;25.70;;;4.15;;
33190;SDS011;19554;42.652;23.364;2023-01-19T02:05:50;33.75;;;4.60;;
33190;SDS011;19554;42.652;23.364;2023-01-19T02:08:19;25.52;;;3.58;;
33190;SDS011;19554;42.652;23.364;2023-01-19T02:11:10;21.70;;;3.72;;
33190;SDS011;19554;42.652;23.364;2023-01-19T02:13:55;36.50;;;4.20;;
33190;SDS011;19554;42.652;23.364;2023-01-19T02:16:21;21.92;;;3.70;;
33190;SDS011;19554;42.652;23.364;2023-01-19T02:18:46;30.92;;;3.17;;
33190;SDS011;19554;42.652;23.364;2023-01-19T02:21:21;24.55;;;3.20;;
33190;SDS011;19554;42.652;23.364;2023-01-19T02:23:54;21.83;;;3.17;;
33190;SDS011;19554;42.652;23.364;2023-01-19T02:29:02;18.88;;;3.55;;
33190;SDS011;19554;42.652;23.364;2023-01-19T02:31:33;32.83;;;4.47;;
33190;SDS011;19554;42.652;23.364;2023-01-19T02:34:01;29.27;;;4.72;;
33190;SDS011;19554;42.652;23.364;2023-01-19T02:36:30;42.35;;;4.05;;
33190;SDS011;19554;42.652;23.364;2023-01-19T02:39:00;26.17;;;4.78;;
33190;SDS011;19554;42.652;23.364;2023-01-19T02:41:28;24.88;;;3.58;;
33190;SDS011;19554;42.652;23.364;2023-01-19T02:46:25;31.02;;;4.18;;
33190;SDS011;19554;42.652;23.364;2023-01-19T02:48:50;33.60;;;3.67;;
33190;SDS011;19554;42.652;23.364;2023-01-19T02:51:16;32.08;;;4.43;;
33190;SDS011;19554;42.652;23.364;2023-01-19T02:53:50;29.95;;;4.75;;
33190;SDS011;19554;42.652;23.364;2023-01-19T03:01:59;33.92;;;3.85;;
33190;SDS011;19554;42.652;23.364;2023-01-19T03:09:54;35.42;;;5.03;;
33190;SDS011;19554;42.652;23.364;2023-01-19T03:17:33;28.40;;;4.68;;
33190;SDS011;19554;42.652;23.364;2023-01-19T03:20:01;31.05;;;4.32;;
33190;SDS011;19554;42.652;23.364;2023-01-19T03:22:29;29.10;;;5.03;;
33190;SDS011;19554;42.652;23.364;2023-01-19T03:24:58;31.50;;;4.53;;
33190;SDS011;19554;42.652;23.364;2023-01-19T03:27:29;28.45;;;4.53;;
33190;SDS011;19554;42.652;23.364;2023-01-19T03:29:59;32.30;;;4.70;;
33190;SDS011;19554;42.652;23.364;2023-01-19T03:32:36;33.63;;;4.45;;
33190;SDS011;19554;42.652;23.364;2023-01-19T03:35:08;27.80;;;3.97;;
33190;SDS011;19554;42.652;23.364;2023-01-19T03:40:06;36.17;;;3.78;;
33190;SDS011;19554;42.652;23.364;2023-01-19T03:42:32;34.92;;;4.93;;
33190;SDS011;19554;42.652;23.364;2023-01-19T03:44:59;25.05;;;3.30;;
33190;SDS011;19554;42.652;23.364;2023-01-19T03:47:26;39.03;;;4.82;;
33190;SDS011;19554;42.652;23.364;2023-01-19T03:49:52;42.63;;;5.80;;
33190;SDS011;19554;42.652;23.364;2023-01-19T03:52:27;41.22;;;4.57;;
33190;SDS011;19554;42.652;23.364;2023-01-19T03:54:54;39.08;;;5.25;;
33190;SDS011;19554;42.652;23.364;2023-01-19T03:57:20;41.15;;;5.00;;
33190;SDS011;19554;42.652;23.364;2023-01-19T03:59:46;47.75;;;4.95;;
33190;SDS011;19554;42.652;23.364;2023-01-19T04:02:12;36.58;;;5.25;;
33190;SDS011;19554;42.652;23.364;2023-01-19T04:04:37;38.42;;;5.03;;
33190;SDS011;19554;42.652;23.364;2023-01-19T04:07:02;51.65;;;6.82;;
33190;SDS011;19554;42.652;23.364;2023-01-19T04:09:28;35.80;;;5.70;;
33190;SDS011;19554;42.652;23.364;2023-01-19T04:11:53;35.83;;;4.90;;
33190;SDS011;19554;42.652;23.364;2023-01-19T04:14:19;52.53;;;5.60;;
33190;SDS011;19554;42.652;23.364;2023-01-19T04:16:45;44.28;;;6.93;;
33190;SDS011;19554;42.652;23.364;2023-01-19T04:19:10;47.25;;;5.70;;
33190;SDS011;19554;42.652;23.364;2023-01-19T04:21:36;45.53;;;6.38;;
33190;SDS011;19554;42.652;23.364;2023-01-19T04:24:01;51.10;;;6.50;;
33190;SDS011;19554;42.652;23.364;2023-01-19T04:26:27;50.90;;;8.65;;
33190;SDS011;19554;42.652;23.364;2023-01-19T04:28:52;45.63;;;6.07;;
33190;SDS011;19554;42.652;23.364;2023-01-19T04:31:18;53.60;;;6.95;;
33190;SDS011;19554;42.652;23.364;2023-01-19T04:33:43;41.97;;;7.75;;
33190;SDS011;19554;42.652;23.364;2023-01-19T04:36:08;45.20;;;6.65;;
33190;SDS011;19554;42.652;23.364;2023-01-19T04:38:34;43.65;;;6.70;;
33190;SDS011;19554;42.652;23.364;2023-01-19T04:41:00;53.67;;;7.22;;
33190;SDS011;19554;42.652;23.364;2023-01-19T04:43:25;38.97;;;7.65;;
33190;SDS011;19554;42.652;23.364;2023-01-19T04:45:50;48.65;;;6.13;;
33190;SDS011;19554;42.652;23.364;2023-01-19T04:48:16;36.92;;;6.60;;
33190;SDS011;19554;42.652;23.364;2023-01-19T04:50:43;44.40;;;7.35;;
33190;SDS011;19554;42.652;23.364;2023-01-19T04:53:09;57.88;;;9.30;;
33190;SDS011;19554;42.652;23.364;2023-01-19T04:55:36;50.92;;;6.68;;
33190;SDS011;19554;42.652;23.364;2023-01-19T04:58:02;48.15;;;7.03;;
33190;SDS011;19554;42.652;23.364;2023-01-19T05:00:28;48.13;;;6.35;;
33190;SDS011;19554;42.652;23.364;2023-01-19T05:02:53;57.55;;;7.10;;
33190;SDS011;19554;42.652;23.364;2023-01-19T05:05:19;40.70;;;5.70;;
33190;SDS011;19554;42.652;23.364;2023-01-19T05:07:44;45.85;;;6.63;;
33190;SDS011;19554;42.652;23.364;2023-01-19T05:10:10;59.30;;;7.22;;
33190;SDS011;19554;42.652;23.364;2023-01-19T05:12:36;54.72;;;7.43;;
33190;SDS011;19554;42.652;23.364;2023-01-19T05:15:01;54.83;;;6.82;;
33190;SDS011;19554;42.652;23.364;2023-01-19T05:17:27;48.15;;;6.82;;
33190;SDS011;19554;42.652;23.364;2023-01-19T05:19:53;44.25;;;7.65;;
33190;SDS011;19554;42.652;23.364;2023-01-19T05:22:18;39.47;;;6.07;;
33190;SDS011;19554;42.652;23.364;2023-01-19T05:24:44;41.83;;;6.10;;
33190;SDS011;19554;42.652;23.364;2023-01-19T05:27:09;45.47;;;6.70;;
33190;SDS011;19554;42.652;23.364;2023-01-19T05:29:35;41.30;;;7.80;;
33190;SDS011;19554;42.652;23.364;2023-01-19T05:32:00;54.55;;;7.90;;
33190;SDS011;19554;42.652;23.364;2023-01-19T05:34:25;48.78;;;7.07;;
33190;SDS011;19554;42.652;23.364;2023-01-19T05:36:51;47.97;;;6.95;;
33190;SDS011;19554;42.652;23.364;2023-01-19T05:39:17;44.22;;;5.75;;
33190;SDS011;19554;42.652;23.364;2023-01-19T05:41:42;46.60;;;7.35;;
33190;SDS011;19554;42.652;23.364;2023-01-19T05:44:09;43.63;;;7.22;;
33190;SDS011;19554;42.652;23.364;2023-01-19T05:46:35;43.80;;;6.55;;
33190;SDS011;19554;42.652;23.364;2023-01-19T05:49:00;37.55;;;6.25;;
33190;SDS011;19554;42.652;23.364;2023-01-19T05:51:28;44.67;;;6.32;;
33190;SDS011;19554;42.652;23.364;2023-01-19T05:53:59;47.28;;;6.88;;
33190;SDS011;19554;42.652;23.364;2023-01-19T05:56:27;45.22;;;6.30;;
33190;SDS011;19554;42.652;23.364;2023-01-19T05:58:52;41.72;;;6.95;;
33190;SDS011;19554;42.652;23.364;2023-01-19T06:01:18;56.03;;;8.05;;
33190;SDS011;19554;42.652;23.364;2023-01-19T06:03:43;54.05;;;7.57;;
33190;SDS011;19554;42.652;23.364;2023-01-19T06:06:08;53.38;;;7.00;;
33190;SDS011;19554;42.652;23.364;2023-01-19T06:08:34;50.00;;;7.45;;
33190;SDS011;19554;42.652;23.364;2023-01-19T06:11:00;46.08;;;6.80;;
33190;SDS011;19554;42.652;23.364;2023-01-19T06:13:25;48.08;;;6.63;;
33190;SDS011;19554;42.652;23.364;2023-01-19T06:15:59;56.95;;;9.20;;
33190;SDS011;19554;42.652;23.364;2023-01-19T06:18:26;52.72;;;8.27;;
33190;SDS011;19554;42.652;23.364;2023-01-19T06:20:52;50.45;;;7.10;;
33190;SDS011;19554;42.652;23.364;2023-01-19T06:23:23;49.60;;;7.47;;
33190;SDS011;19554;42.652;23.364;2023-01-19T06:25:49;51.58;;;7.80;;
33190;SDS011;19554;42.652;23.364;2023-01-19T06:28:15;41.70;;;7.50;;
33190;SDS011;19554;42.652;23.364;2023-01-19T06:30:41;55.20;;;8.05;;
33190;SDS011;19554;42.652;23.364;2023-01-19T06:33:06;51.25;;;7.95;;
33190;SDS011;19554;42.652;23.364;2023-01-19T06:35:32;48.42;;;7.90;;
33190;SDS011;19554;42.652;23.364;2023-01-19T06:37:57;45.83;;;7.47;;
33190;SDS011;19554;42.652;23.364;2023-01-19T06:40:22;45.72;;;6.85;;
33190;SDS011;19554;42.652;23.364;2023-01-19T06:42:48;59.85;;;7.68;;
33190;SDS011;19554;42.652;23.364;2023-01-19T06:45:13;43.75;;;7.10;;
33190;SDS011;19554;42.652;23.364;2023-01-19T06:47:39;48.65;;;7.38;;
33190;SDS011;19554;42.652;23.364;2023-01-19T06:50:04;49.70;;;7.93;;
33190;SDS011;19554;42.652;23.364;2023-01-19T06:52:30;41.60;;;7.50;;
33190;SDS011;19554;42.652;23.364;2023-01-19T06:54:55;57.13;;;8.10;;
33190;SDS011;19554;42.652;23.364;2023-01-19T06:57:21;53.55;;;8.25;;
33190;SDS011;19554;42.652;23.364;2023-01-19T06:59:47;45.83;;;7.80;;
33190;SDS011;19554;42.652;23.364;2023-01-19T07:02:13;43.28;;;8.00;;
33190;SDS011;19554;42.652;23.364;2023-01-19T07:04:43;45.20;;;7.60;;
33190;SDS011;19554;42.652;23.364;2023-01-19T07:07:09;46.75;;;8.10;;
33190;SDS011;19554;42.652;23.364;2023-01-19T07:09:34;51.85;;;7.13;;
33190;SDS011;19554;42.652;23.364;2023-01-19T07:11:59;43.35;;;8.30;;
33190;SDS011;19554;42.652;23.364;2023-01-19T07:14:25;44.30;;;6.88;;
33190;SDS011;19554;42.652;23.364;2023-01-19T07:16:57;42.70;;;7.15;;
33190;SDS011;19554;42.652;23.364;2023-01-19T07:19:22;48.72;;;8.35;;
33190;SDS011;19554;42.652;23.364;2023-01-19T07:21:48;51.15;;;6.57;;
33190;SDS011;19554;42.652;23.364;2023-01-19T07:24:13;46.85;;;7.78;;
33190;SDS011;19554;42.652;23.364;2023-01-19T07:26:39;52.10;;;7.53;;
33190;SDS011;19554;42.652;23.364;2023-01-19T07:29:04;49.92;;;8.93;;
33190;SDS011;19554;42.652;23.364;2023-01-19T07:31:29;54.40;;;8.43;;
33190;SDS011;19554;42.652;23.364;2023-01-19T07:33:55;48.92;;;7.90;;
33190;SDS011;19554;42.652;23.364;2023-01-19T07:36:20;57.20;;;8.70;;
33190;SDS011;19554;42.652;23.364;2023-01-19T07:38:45;51.55;;;7.63;;
33190;SDS011;19554;42.652;23.364;2023-01-19T07:41:11;45.70;;;7.80;;
33190;SDS011;19554;42.652;23.364;2023-01-19T07:43:36;44.42;;;7.38;;
33190;SDS011;19554;42.652;23.364;2023-01-19T07:46:03;41.72;;;8.25;;
33190;SDS011;19554;42.652;23.364;2023-01-19T07:48:29;49.10;;;6.38;;
33190;SDS011;19554;42.652;23.364;2023-01-19T07:50:58;56.03;;;7.00;;
33190;SDS011;19554;42.652;23.364;2023-01-19T07:53:25;52.17;;;8.20;;
33190;SDS011;19554;42.652;23.364;2023-01-19T07:55:54;54.55;;;7.45;;
33190;SDS011;19554;42.652;23.364;2023-01-19T07:58:21;45.23;;;7.17;;
33190;SDS011;19554;42.652;23.364;2023-01-19T08:00:47;54.25;;;8.00;;
33190;SDS011;19554;42.652;23.364;2023-01-19T08:03:12;53.97;;;8.02;;
33190;SDS011;19554;42.652;23.364;2023-01-19T08:05:37;42.40;;;6.88;;
33190;SDS011;19554;42.652;23.364;2023-01-19T08:08:03;45.25;;;6.78;;
33190;SDS011;19554;42.652;23.364;2023-01-19T08:10:29;47.53;;;7.63;;
33190;SDS011;19554;42.652;23.364;2023-01-19T08:12:56;41.70;;;7.65;;
33190;SDS011;19554;42.652;23.364;2023-01-19T08:15:22;56.10;;;7.82;;
33190;SDS011;19554;42.652;23.364;2023-01-19T08:17:58;53.15;;;7.75;;
33190;SDS011;19554;42.652;23.364;2023-01-19T08:20:33;59.83;;;8.35;;
33190;SDS011;19554;42.652;23.364;2023-01-19T08:22:58;46.72;;;8.10;;
33190;SDS011;19554;42.652;23.364;2023-01-19T08:25:25;63.30;;;8.25;;
33190;SDS011;19554;42.652;23.364;2023-01-19T08:27:57;56.30;;;9.15;;
33190;SDS011;19554;42.652;23.364;2023-01-19T08:30:22;55.25;;;8.93;;
33190;SDS011;19554;42.652;23.364;2023-01-19T08:32:50;68.53;;;9.50;;
33190;SDS011;19554;42.652;23.364;2023-01-19T08:35:21;56.20;;;7.95;;
33190;SDS011;19554;42.652;23.364;2023-01-19T08:37:47;58.78;;;8.05;;
33190;SDS011;19554;42.652;23.364;2023-01-19T08:40:13;60.60;;;7.50;;
33190;SDS011;19554;42.652;23.364;2023-01-19T08:42:39;61.97;;;8.57;;
33190;SDS011;19554;42.652;23.364;2023-01-19T08:45:04;47.35;;;8.45;;
33190;SDS011;19554;42.652;23.364;2023-01-19T08:47:30;48.80;;;6.55;;
33190;SDS011;19554;42.652;23.364;2023-01-19T08:49:55;44.05;;;8.38;;
33190;SDS011;19554;42.652;23.364;2023-01-19T08:52:21;55.25;;;7.97;;
33190;SDS011;19554;42.652;23.364;2023-01-19T08:54:48;50.85;;;7.65;;
33190;SDS011;19554;42.652;23.364;2023-01-19T08:57:14;48.50;;;7.00;;
33190;SDS011;19554;42.652;23.364;2023-01-19T08:59:40;48.50;;;7.18;;
33190;SDS011;19554;42.652;23.364;2023-01-19T09:02:05;48.22;;;7.10;;
33190;SDS011;19554;42.652;23.364;2023-01-19T09:04:30;51.35;;;7.28;;
33190;SDS011;19554;42.652;23.364;2023-01-19T09:06:58;59.60;;;7.65;;
33190;SDS011;19554;42.652;23.364;2023-01-19T09:09:23;44.38;;;5.95;;
33190;SDS011;19554;42.652;23.364;2023-01-19T09:11:49;38.45;;;6.80;;
33190;SDS011;19554;42.652;23.364;2023-01-19T09:14:14;45.88;;;7.03;;
33190;SDS011;19554;42.652;23.364;2023-01-19T09:16:39;49.55;;;6.88;;
33190;SDS011;19554;42.652;23.364;2023-01-19T09:19:05;58.60;;;6.95;;
33190;SDS011;19554;42.652;23.364;2023-01-19T09:21:32;39.28;;;6.25;;
33190;SDS011;19554;42.652;23.364;2023-01-19T09:23:57;45.53;;;6.45;;
33190;SDS011;19554;42.652;23.364;2023-01-19T09:26:23;31.80;;;5.43;;
33190;SDS011;19554;42.652;23.364;2023-01-19T09:28:48;37.53;;;5.43;;
33190;SDS011;19554;42.652;23.364;2023-01-19T09:31:14;42.05;;;5.57;;
33190;SDS011;19554;42.652;23.364;2023-01-19T09:33:39;43.53;;;6.63;;
33190;SDS011;19554;42.652;23.364;2023-01-19T09:36:05;35.65;;;6.03;;
33190;SDS011;19554;42.652;23.364;2023-01-19T09:38:31;33.10;;;5.40;;
33190;SDS011;19554;42.652;23.364;2023-01-19T09:40:57;22.80;;;5.38;;
33190;SDS011;19554;42.652;23.364;2023-01-19T09:43:30;40.67;;;5.82;;
33190;SDS011;19554;42.652;23.364;2023-01-19T09:46:09;35.77;;;5.13;;
33190;SDS011;19554;42.652;23.364;2023-01-19T09:48:41;43.70;;;6.32;;
33190;SDS011;19554;42.652;23.364;2023-01-19T09:56:37;38.97;;;6.10;;
33190;SDS011;19554;42.652;23.364;2023-01-19T09:59:11;33.58;;;4.57;;
33190;SDS011;19554;42.652;23.364;2023-01-19T10:02:04;29.10;;;4.05;;
33190;SDS011;19554;42.652;23.364;2023-01-19T10:05:06;31.02;;;4.93;;
33190;SDS011;19554;42.652;23.364;2023-01-19T10:12:57;38.05;;;4.75;;
33190;SDS011;19554;42.652;23.364;2023-01-19T10:18:10;31.30;;;5.18;;
33190;SDS011;19554;42.652;23.364;2023-01-19T10:20:38;26.20;;;4.97;;
33190;SDS011;19554;42.652;23.364;2023-01-19T10:23:42;26.48;;;4.40;;
33190;SDS011;19554;42.652;23.364;2023-01-19T10:26:07;21.58;;;3.70;;
33190;SDS011;19554;42.652;23.364;2023-01-19T10:28:45;21.48;;;3.75;;
33190;SDS011;19554;42.652;23.364;2023-01-19T10:31:12;35.25;;;6.50;;
33190;SDS011;19554;42.652;23.364;2023-01-19T10:33:40;23.10;;;5.63;;
33190;SDS011;19554;42.652;23.364;2023-01-19T10:36:17;33.03;;;5.00;;
33190;SDS011;19554;42.652;23.364;2023-01-19T10:38:45;32.30;;;5.90;;
33190;SDS011;19554;42.652;23.364;2023-01-19T10:41:22;31.77;;;3.88;;
33190;SDS011;19554;42.652;23.364;2023-01-19T10:43:58;30.23;;;4.88;;
33190;SDS011;19554;42.652;23.364;2023-01-19T10:48:53;26.52;;;4.47;;
33190;SDS011;19554;42.652;23.364;2023-01-19T10:51:20;27.52;;;4.38;;
33190;SDS011;19554;42.652;23.364;2023-01-19T10:53:53;32.47;;;4.43;;
33190;SDS011;19554;42.652;23.364;2023-01-19T10:56:30;24.42;;;3.60;;
33190;SDS011;19554;42.652;23.364;2023-01-19T10:58:58;45.40;;;5.00;;
33190;SDS011;19554;42.652;23.364;2023-01-19T11:01:26;24.20;;;4.35;;
33190;SDS011;19554;42.652;23.364;2023-01-19T11:03:52;32.50;;;5.28;;
33190;SDS011;19554;42.652;23.364;2023-01-19T11:06:26;18.45;;;4.18;;
33190;SDS011;19554;42.652;23.364;2023-01-19T11:09:08;27.08;;;3.78;;
33190;SDS011;19554;42.652;23.364;2023-01-19T11:11:43;19.40;;;3.35;;
33190;SDS011;19554;42.652;23.364;2023-01-19T11:14:12;25.13;;;3.70;;
33190;SDS011;19554;42.652;23.364;2023-01-19T11:16:43;23.30;;;4.07;;
33190;SDS011;19554;42.652;23.364;2023-01-19T11:19:23;19.65;;;4.43;;
33190;SDS011;19554;42.652;23.364;2023-01-19T11:21:51;26.77;;;4.47;;
33190;SDS011;19554;42.652;23.364;2023-01-19T11:24:30;22.48;;;4.22;;
33190;SDS011;19554;42.652;23.364;2023-01-19T11:26:56;24.77;;;3.85;;
33190;SDS011;19554;42.652;23.364;2023-01-19T11:31:52;30.67;;;3.72;;
33190;SDS011;19554;42.652;23.364;2023-01-19T11:34:27;18.38;;;3.88;;
33190;SDS011;19554;42.652;23.364;2023-01-19T11:36:59;27.83;;;7.25;;
33190;SDS011;19554;42.652;23.364;2023-01-19T11:39:28;36.72;;;7.70;;
33190;SDS011;19554;42.652;23.364;2023-01-19T11:41:59;27.52;;;4.97;;
33190;SDS011;19554;42.652;23.364;2023-01-19T11:44:33;16.45;;;4.00;;
33190;SDS011;19554;42.652;23.364;2023-01-19T11:50:06;24.25;;;3.42;;
33190;SDS011;19554;42.652;23.364;2023-01-19T11:52:56;22.75;;;3.72;;
33190;SDS011;19554;42.652;23.364;2023-01-19T11:58:02;25.48;;;3.65;;
33190;SDS011;19554;42.652;23.364;2023-01-19T12:00:40;21.10;;;3.17;;
33190;SDS011;19554;42.652;23.364;2023-01-19T12:05:50;26.83;;;3.40;;
33190;SDS011;19554;42.652;23.364;2023-01-19T12:08:19;21.70;;;3.72;;
33190;SDS011;19554;42.652;23.364;2023-01-19T12:10:49;12.30;;;2.50;;
33190;SDS011;19554;42.652;23.364;2023-01-19T12:13:21;18.48;;;2.95;;
33190;SDS011;19554;42.652;23.364;2023-01-19T12:15:53;19.17;;;3.28;;
33190;SDS011;19554;42.652;23.364;2023-01-19T12:18:23;15.90;;;3.03;;
33190;SDS011;19554;42.652;23.364;2023-01-19T12:20:52;25.23;;;3.23;;
33190;SDS011;19554;42.652;23.364;2023-01-19T12:28:29;26.77;;;3.47;;
33190;SDS011;19554;42.652;23.364;2023-01-19T12:30:57;17.08;;;3.60;;
33190;SDS011;19554;42.652;23.364;2023-01-19T12:36:03;17.98;;;2.95;;
33190;SDS011;19554;42.652;23.364;2023-01-19T12:39:11;14.82;;;2.30;;
33190;SDS011;19554;42.652;23.364;2023-01-19T12:41:42;17.98;;;3.33;;
33190;SDS011;19554;42.652;23.364;2023-01-19T12:49:04;12.52;;;1.88;;
33190;SDS011;19554;42.652;23.364;2023-01-19T12:51:35;21.02;;;2.95;;
33190;SDS011;19554;42.652;23.364;2023-01-19T12:54:00;15.52;;;3.38;;
33190;SDS011;19554;42.652;23.364;2023-01-19T12:56:31;19.45;;;2.80;;
33190;SDS011;19554;42.652;23.364;2023-01-19T12:58:59;15.20;;;2.58;;
33190;SDS011;19554;42.652;23.364;2023-01-19T13:01:25;19.73;;;2.65;;
33190;SDS011;19554;42.652;23.364;2023-01-19T13:07:03;19.98;;;2.75;;
33190;SDS011;19554;42.652;23.364;2023-01-19T13:09:31;15.20;;;3.20;;
33190;SDS011;19554;42.652;23.364;2023-01-19T13:14:41;11.25;;;2.58;;
33190;SDS011;19554;42.652;23.364;2023-01-19T13:17:17;12.10;;;2.38;;
33190;SDS011;19554;42.652;23.364;2023-01-19T13:19:51;10.80;;;2.65;;
33190;SDS011;19554;42.652;23.364;2023-01-19T13:25:13;16.20;;;3.08;;
33190;SDS011;19554;42.652;23.364;2023-01-19T13:27:51;14.23;;;2.42;;
33190;SDS011;19554;42.652;23.364;2023-01-19T13:30:17;22.42;;;2.75;;
33190;SDS011;19554;42.652;23.364;2023-01-19T13:32:45;14.07;;;2.88;;
33190;SDS011;19554;42.652;23.364;2023-01-19T13:35:16;12.90;;;2.65;;
33190;SDS011;19554;42.652;23.364;2023-01-19T13:37:44;11.15;;;3.22;;
33190;SDS011;19554;42.652;23.364;2023-01-19T13:40:17;9.30;;;2.78;;
33190;SDS011;19554;42.652;23.364;2023-01-19T13:42:46;19.17;;;3.17;;
33190;SDS011;19554;42.652;23.364;2023-01-19T13:45:26;14.75;;;2.65;;
33190;SDS011;19554;42.652;23.364;2023-01-19T13:47:56;17.33;;;2.97;;
33190;SDS011;19554;42.652;23.364;2023-01-19T13:50:30;9.57;;;2.97;;
33190;SDS011;19554;42.652;23.364;2023-01-19T13:52:57;13.13;;;2.53;;
33190;SDS011;19554;42.652;23.364;2023-01-19T13:55:24;10.57;;;3.00;;
33190;SDS011;19554;42.652;23.364;2023-01-19T13:57:51;19.48;;;2.90;;
33190;SDS011;19554;42.652;23.364;2023-01-19T14:00:18;18.25;;;2.50;;
33190;SDS011;19554;42.652;23.364;2023-01-19T14:05:42;16.17;;;2.47;;
33190;SDS011;19554;42.652;23.364;2023-01-19T14:10:47;13.52;;;3.08;;
33190;SDS011;19554;42.652;23.364;2023-01-19T14:13:29;9.05;;;2.58;;
33190;SDS011;19554;42.652;23.364;2023-01-19T14:16:00;9.32;;;2.50;;
33190;SDS011;19554;42.652;23.364;2023-01-19T14:18:30;14.73;;;2.63;;
33190;SDS011;19554;42.652;23.364;2023-01-19T14:23:42;12.10;;;3.08;;
33190;SDS011;19554;42.652;23.364;2023-01-19T14:32:03;16.65;;;2.80;;
33190;SDS011;19554;42.652;23.364;2023-01-19T14:34:39;19.55;;;2.95;;
33190;SDS011;19554;42.652;23.364;2023-01-19T14:37:28;9.52;;;2.63;;
33190;SDS011;19554;42.652;23.364;2023-01-19T14:45:18;17.40;;;2.90;;
33190;SDS011;19554;42.652;23.364;2023-01-19T14:47:55;12.45;;;3.00;;
33190;SDS011;19554;42.652;23.364;2023-01-19T14:50:33;13.73;;;3.00;;
33190;SDS011;19554;42.652;23.364;2023-01-19T14:53:02;16.40;;;3.53;;
33190;SDS011;19554;42.652;23.364;2023-01-19T14:55:37;19.08;;;3.30;;
33190;SDS011;19554;42.652;23.364;2023-01-19T14:58:10;8.90;;;2.92;;
33190;SDS011;19554;42.652;23.364;2023-01-19T15:00:38;11.02;;;2.60;;
33190;SDS011;19554;42.652;23.364;2023-01-19T15:03:04;14.80;;;2.75;;
33190;SDS011;19554;42.652;23.364;2023-01-19T15:05:34;8.77;;;2.55;;
33190;SDS011;19554;42.652;23.364;2023-01-19T15:08:00;12.70;;;2.63;;
33190;SDS011;19554;42.652;23.364;2023-01-19T15:10:28;10.43;;;2.28;;
33190;SDS011;19554;42.652;23.364;2023-01-19T15:12:54;9.68;;;2.75;;
33190;SDS011;19554;42.652;23.364;2023-01-19T15:15:30;12.63;;;2.85;;
33190;SDS011;19554;42.652;23.364;2023-01-19T15:17:58;14.88;;;3.47;;
33190;SDS011;19554;42.652;23.364;2023-01-19T15:20:25;8.65;;;2.60;;
33190;SDS011;19554;42.652;23.364;2023-01-19T15:22:50;13.98;;;3.03;;
33190;SDS011;19554;42.652;23.364;2023-01-19T15:25:17;14.30;;;3.63;;
33190;SDS011;19554;42.652;23.364;2023-01-19T15:27:44;14.50;;;3.80;;
33190;SDS011;19554;42.652;23.364;2023-01-19T15:30:21;11.45;;;3.15;;
33190;SDS011;19554;42.652;23.364;2023-01-19T15:32:48;12.40;;;2.80;;
33190;SDS011;19554;42.652;23.364;2023-01-19T15:35:18;6.68;;;2.38;;
33190;SDS011;19554;42.652;23.364;2023-01-19T15:37:45;11.20;;;3.05;;
33190;SDS011;19554;42.652;23.364;2023-01-19T15:40:13;17.13;;;3.17;;
33190;SDS011;19554;42.652;23.364;2023-01-19T15:42:39;10.32;;;3.50;;
33190;SDS011;19554;42.652;23.364;2023-01-19T15:47:52;10.30;;;3.28;;
33190;SDS011;19554;42.652;23.364;2023-01-19T15:50:18;8.70;;;2.10;;
33190;SDS011;19554;42.652;23.364;2023-01-19T15:52:44;7.68;;;2.30;;
33190;SDS011;19554;42.652;23.364;2023-01-19T15:55:09;14.18;;;3.08;;
33190;SDS011;19554;42.652;23.364;2023-01-19T15:57:36;13.88;;;2.17;;
33190;SDS011;19554;42.652;23.364;2023-01-19T16:00:03;10.00;;;2.83;;
33190;SDS011;19554;42.652;23.364;2023-01-19T16:02:29;10.25;;;2.72;;
33190;SDS011;19554;42.652;23.364;2023-01-19T16:04:54;14.48;;;4.32;;